createdAt,value
2018-04-22T00:03:40.289Z,25.20
2018-04-22T00:08:31.821Z,21.43
2018-04-22T00:13:23.393Z,21.10
2018-04-22T00:18:15.651Z,22.20
2018-04-22T00:23:07.899Z,21.77
2018-04-22T00:28:00.138Z,27.27
2018-04-22T00:32:51.668Z,21.83
2018-04-22T00:37:43.170Z,22.47
2018-04-22T00:42:34.703Z,23.77
2018-04-22T00:47:26.217Z,21.53
2018-04-22T00:52:17.702Z,23.93
2018-04-22T00:57:09.206Z,20.67
2018-04-22T01:02:00.692Z,20.73
2018-04-22T01:06:52.915Z,23.33
2018-04-22T01:11:44.419Z,20.30
2018-04-22T01:16:35.958Z,21.50
2018-04-22T01:21:27.465Z,20.17
2018-04-22T01:26:18.960Z,21.93
2018-04-22T01:31:10.460Z,20.67
2018-04-22T01:36:02.017Z,20.23
2018-04-22T01:40:53.889Z,21.50
2018-04-22T01:45:46.153Z,22.63
2018-04-22T01:50:38.385Z,19.57
2018-04-22T01:55:29.922Z,22.17
2018-04-22T02:00:22.176Z,19.77
2018-04-22T02:05:14.464Z,19.97
2018-04-22T02:10:05.960Z,21.50
2018-04-22T02:14:58.241Z,20.43
2018-04-22T02:19:49.737Z,19.63
2018-04-22T02:24:41.224Z,21.67
2018-04-22T02:29:32.761Z,20.80
2018-04-22T02:34:24.312Z,20.53
2018-04-22T02:39:15.849Z,20.60
2018-04-22T02:44:07.365Z,19.67
2018-04-22T02:48:58.905Z,18.83
2018-04-22T02:53:50.409Z,20.63
2018-04-22T02:58:41.906Z,21.33
2018-04-22T03:03:34.167Z,23.13
2018-04-22T03:08:26.403Z,20.53
2018-04-22T03:13:17.907Z,20.63
2018-04-22T03:18:09.413Z,20.47
2018-04-22T03:23:00.918Z,21.40
2018-04-22T03:27:53.173Z,22.87
2018-04-22T03:32:45.426Z,21.20
2018-04-22T03:37:37.669Z,20.00
2018-04-22T03:42:29.912Z,20.93
2018-04-22T03:47:22.158Z,21.80
2018-04-22T03:52:13.653Z,22.40
2018-04-22T03:57:05.171Z,21.27
2018-04-22T04:01:56.671Z,21.57
2018-04-22T04:06:48.915Z,24.83
2018-04-22T04:11:41.162Z,22.27
2018-04-22T04:16:33.405Z,21.60
2018-04-22T04:21:43.411Z,21.27
2018-04-22T04:27:07.168Z,22.47
2018-04-22T04:31:58.669Z,21.53
2018-04-22T04:36:50.169Z,22.50
2018-04-22T04:41:41.679Z,21.13
2018-04-22T04:46:33.929Z,21.10
2018-04-22T04:51:26.236Z,21.60
2018-04-22T04:56:17.750Z,22.87
2018-04-22T05:01:09.237Z,21.50
2018-04-22T05:06:00.724Z,21.77
2018-04-22T05:10:52.288Z,21.87
2018-04-22T05:15:43.803Z,22.30
2018-04-22T05:20:35.313Z,22.97
2018-04-22T05:25:26.823Z,23.27
2018-04-22T05:30:19.088Z,22.30
2018-04-22T05:35:10.583Z,22.57
2018-04-22T05:40:02.096Z,22.10
2018-04-22T05:44:53.591Z,21.13
2018-04-22T05:49:45.099Z,21.30
2018-04-22T05:54:37.325Z,20.70
2018-04-22T05:59:28.838Z,20.57
2018-04-22T06:04:20.453Z,20.53
2018-04-22T06:09:11.968Z,19.83
2018-04-22T06:14:04.227Z,21.17
2018-04-22T06:18:55.721Z,20.10
2018-04-22T06:23:47.259Z,22.90
2018-04-22T06:28:38.761Z,18.60
2018-04-22T06:33:30.251Z,18.13
2018-04-22T06:38:22.518Z,19.30
2018-04-22T06:43:14.031Z,18.90
2018-04-22T06:48:06.271Z,18.87
2018-04-22T06:52:58.526Z,18.87
2018-04-22T06:57:51.802Z,18.73
2018-04-22T07:02:44.065Z,17.63
2018-04-22T07:07:36.310Z,18.20
2018-04-22T07:12:28.545Z,18.57
2018-04-22T07:17:20.051Z,19.13
2018-04-22T07:22:11.556Z,17.17
2018-04-22T07:27:03.071Z,17.97
2018-04-22T07:31:54.577Z,18.10
2018-04-22T07:36:46.070Z,17.00
2018-04-22T07:41:37.636Z,17.13
2018-04-22T07:46:29.123Z,18.60
2018-04-22T07:51:20.657Z,19.43
2018-04-22T07:56:12.164Z,16.43
2018-04-22T08:01:04.415Z,16.27
2018-04-22T08:05:56.691Z,15.87
2018-04-22T08:10:48.191Z,16.10
2018-04-22T08:15:40.471Z,14.93
2018-04-22T08:20:31.991Z,15.47
2018-04-22T08:25:24.252Z,14.87
2018-04-22T08:30:15.732Z,15.30
2018-04-22T08:35:07.230Z,15.40
2018-04-22T08:39:58.756Z,14.80
2018-04-22T08:44:50.255Z,11.47
2018-04-22T08:49:42.508Z,12.63
2018-04-22T08:54:34.822Z,11.83
2018-04-22T08:59:26.361Z,11.50
2018-04-22T09:04:17.889Z,10.73
2018-04-22T09:09:09.396Z,11.23
2018-04-22T09:14:00.934Z,10.70
2018-04-22T09:18:52.475Z,10.43
2018-04-22T09:23:43.963Z,11.77
2018-04-22T09:28:36.224Z,9.10
2018-04-22T09:33:28.471Z,12.97
2018-04-22T09:38:20.759Z,8.13
2018-04-22T09:43:12.266Z,10.67
2018-04-22T09:48:03.804Z,10.03
2018-04-22T09:52:56.053Z,8.40
2018-04-22T09:57:47.599Z,10.90
2018-04-22T10:02:39.117Z,8.53
2018-04-22T10:07:31.517Z,10.80
2018-04-22T10:12:23.025Z,13.77
2018-04-22T10:17:14.918Z,9.83
2018-04-22T10:22:06.439Z,9.13
2018-04-22T10:26:58.043Z,9.77
2018-04-22T10:31:49.547Z,13.87
2018-04-22T10:36:41.802Z,10.80
2018-04-22T10:41:34.053Z,11.47
2018-04-22T10:46:27.312Z,7.83
2018-04-22T10:51:19.010Z,11.17
2018-04-22T10:56:11.368Z,8.87
2018-04-22T11:01:02.946Z,11.97
2018-04-22T11:05:55.181Z,8.20
2018-04-22T11:10:46.681Z,8.87
2018-04-22T11:15:38.153Z,9.17
2018-04-22T11:20:29.665Z,8.20
2018-04-22T11:25:21.899Z,10.00
2018-04-22T11:30:13.382Z,9.80
2018-04-22T11:35:06.409Z,11.23
2018-04-22T11:39:57.892Z,8.97
2018-04-22T11:44:50.161Z,7.50
2018-04-22T11:49:41.655Z,7.30
2018-04-22T11:54:33.160Z,11.13
2018-04-22T11:59:24.790Z,6.47
2018-04-22T12:04:16.301Z,8.70
2018-04-22T12:09:07.819Z,10.80
2018-04-22T12:14:00.971Z,7.53
2018-04-22T12:18:52.610Z,10.30
2018-04-22T12:23:44.860Z,8.77
2018-04-22T12:28:37.106Z,8.40
2018-04-22T12:33:29.137Z,6.30
2018-04-22T12:38:20.784Z,9.87
2018-04-22T12:43:13.159Z,6.70
2018-04-22T12:48:04.655Z,7.00
2018-04-22T12:52:56.161Z,7.20
2018-04-22T12:57:47.731Z,9.60
2018-04-22T13:02:39.262Z,8.10
2018-04-22T13:07:30.751Z,8.40
2018-04-22T13:12:22.285Z,12.40
2018-04-22T13:17:13.817Z,23.90
2018-04-22T13:22:05.362Z,12.57
2018-04-22T13:26:56.866Z,10.90
2018-04-22T13:31:49.138Z,10.70
2018-04-22T13:36:40.650Z,11.87
2018-04-22T13:41:32.924Z,8.57
2018-04-22T13:46:24.462Z,12.30
2018-04-22T13:51:15.999Z,11.07
2018-04-22T13:56:07.526Z,9.50
2018-04-22T14:00:59.035Z,7.33
2018-04-22T14:05:51.288Z,8.93
2018-04-22T14:10:43.565Z,8.50
2018-04-22T14:15:35.095Z,10.20
2018-04-22T14:20:26.634Z,16.40
2018-04-22T14:25:18.174Z,11.37
2018-04-22T14:30:10.837Z,10.17
2018-04-22T14:35:02.357Z,15.10
2018-04-22T14:39:53.857Z,14.07
2018-04-22T14:45:04.647Z,15.10
2018-04-22T14:49:56.903Z,15.87
2018-04-22T14:54:49.139Z,13.97
2018-04-22T14:59:40.611Z,17.87
2018-04-22T15:04:32.092Z,15.43
2018-04-22T15:09:23.604Z,12.60
2018-04-22T15:14:15.110Z,14.37
2018-04-22T15:19:06.604Z,14.40
2018-04-22T15:23:58.118Z,10.73
2018-04-22T15:28:49.626Z,12.57
2018-04-22T15:33:41.146Z,18.90
2018-04-22T15:38:32.672Z,13.93
2018-04-22T15:43:24.160Z,13.60
2018-04-22T15:48:15.662Z,15.43
2018-04-22T15:53:07.153Z,14.90
2018-04-22T15:57:59.414Z,17.07
2018-04-22T16:02:51.654Z,13.53
2018-04-22T16:07:43.886Z,14.80
2018-04-22T16:12:35.367Z,17.03
2018-04-22T16:17:26.851Z,15.23
2018-04-22T16:22:19.196Z,10.57
2018-04-22T16:27:10.705Z,8.33
2018-04-22T16:32:02.265Z,7.20
2018-04-22T16:36:53.751Z,11.73
2018-04-22T16:41:45.311Z,10.43
2018-04-22T16:46:36.821Z,13.17
2018-04-22T16:51:28.422Z,10.20
2018-04-22T16:56:19.963Z,12.10
2018-04-22T17:01:12.224Z,11.77
2018-04-22T17:06:05.531Z,12.40
2018-04-22T17:10:57.065Z,7.97
2018-04-22T17:15:48.617Z,10.07
2018-04-22T17:20:40.121Z,12.50
2018-04-22T17:25:32.007Z,13.97
2018-04-22T17:30:24.298Z,12.43
2018-04-22T17:35:16.547Z,12.00
2018-04-22T17:40:08.784Z,12.20
2018-04-22T17:45:00.286Z,9.30
2018-04-22T17:49:51.769Z,13.83
2018-04-22T17:54:44.002Z,11.97
2018-04-22T17:59:35.591Z,11.87
2018-04-22T18:04:27.145Z,10.47
2018-04-22T18:09:18.729Z,13.53
2018-04-22T18:14:10.274Z,13.43
2018-04-22T18:19:02.365Z,12.23
2018-04-22T18:23:53.880Z,13.20
2018-04-22T18:28:45.496Z,11.33
2018-04-22T18:33:37.025Z,10.73
2018-04-22T18:38:28.546Z,11.53
2018-04-22T18:43:20.077Z,9.13
2018-04-22T18:48:12.440Z,10.57
2018-04-22T18:53:03.935Z,10.53
2018-04-22T18:57:55.448Z,8.03
2018-04-22T19:02:47.698Z,10.87
2018-04-22T19:07:39.198Z,14.23
2018-04-22T19:12:30.673Z,9.87
2018-04-22T19:17:22.191Z,10.40
2018-04-22T19:22:13.726Z,15.13
2018-04-22T19:27:06.203Z,9.07
2018-04-22T19:31:59.002Z,11.20
2018-04-22T19:36:51.341Z,8.67
2018-04-22T19:41:44.476Z,14.67
2018-04-22T19:46:36.813Z,12.73
2018-04-22T19:51:28.313Z,10.70
2018-04-22T19:56:20.563Z,16.93
2018-04-22T20:01:13.181Z,10.83
2018-04-22T20:06:05.592Z,9.07
2018-04-22T20:10:57.160Z,14.07
2018-04-22T20:15:48.711Z,11.60
2018-04-22T20:20:40.318Z,15.27
2018-04-22T20:25:31.791Z,12.40
2018-04-22T20:30:23.309Z,12.97
2018-04-22T20:35:14.812Z,9.57
2018-04-22T20:40:06.405Z,9.77
2018-04-22T20:44:58.819Z,7.87
2018-04-22T20:49:50.405Z,15.33
2018-04-22T20:54:42.761Z,16.63
2018-04-22T20:59:35.038Z,15.27
2018-04-22T21:04:26.660Z,12.23
2018-04-22T21:09:18.162Z,13.70
2018-04-22T21:14:09.662Z,10.63
2018-04-22T21:19:01.211Z,10.43
2018-04-22T21:23:52.761Z,11.33
2018-04-22T21:28:44.368Z,12.87
2018-04-22T21:33:35.858Z,12.43
2018-04-22T21:38:27.401Z,12.23
2018-04-22T21:43:19.019Z,12.40
2018-04-22T21:48:11.302Z,13.77
2018-04-22T21:53:02.824Z,14.83
2018-04-22T21:57:54.339Z,11.43
2018-04-22T22:02:46.555Z,11.47
2018-04-22T22:07:38.090Z,12.57
2018-04-22T22:12:29.606Z,12.77
2018-04-22T22:17:21.130Z,13.67
2018-04-22T22:22:12.634Z,15.97
2018-04-22T22:27:04.865Z,10.70
2018-04-22T22:31:56.377Z,12.20
2018-04-22T22:36:48.143Z,11.77
2018-04-22T22:41:40.391Z,11.53
2018-04-22T22:46:31.909Z,10.10
2018-04-22T22:51:23.409Z,13.17
2018-04-22T22:56:14.927Z,12.67
2018-04-22T23:01:06.422Z,12.63
2018-04-22T23:05:57.953Z,12.80
2018-04-22T23:10:50.411Z,9.03
2018-04-22T23:15:41.945Z,13.00
2018-04-22T23:20:33.436Z,12.77
2018-04-22T23:25:24.963Z,11.53
2018-04-22T23:30:16.442Z,10.70
2018-04-22T23:35:08.025Z,11.17
2018-04-22T23:39:59.520Z,11.20
2018-04-22T23:44:51.039Z,13.00
2018-04-22T23:49:42.546Z,11.60
2018-04-22T23:54:34.043Z,13.60
2018-04-22T23:59:25.585Z,17.00
